sensor_id;sensor_type;location;lat;lon;timestamp;temperature;humidity
20380;DHT22;10349;48.666;8.948;2023-07-29T00:00:39;16.40;99.90
20380;DHT22;10349;48.666;8.948;2023-07-29T00:03:05;16.30;99.90
20380;DHT22;10349;48.666;8.948;2023-07-29T00:05:31;16.30;99.90
20380;DHT22;10349;48.666;8.948;2023-07-29T00:07:56;16.30;99.90
20380;DHT22;10349;48.666;8.948;2023-07-29T00:10:22;16.40;99.90
20380;DHT22;10349;48.666;8.948;2023-07-29T00:12:48;16.40;99.90
20380;DHT22;10349;48.666;8.948;2023-07-29T00:15:14;16.40;99.90
20380;DHT22;10349;48.666;8.948;2023-07-29T00:17:39;16.40;99.90
20380;DHT22;10349;48.666;8.948;2023-07-29T00:20:06;16.40;99.90
20380;DHT22;10349;48.666;8.948;2023-07-29T00:22:32;16.40;99.90
20380;DHT22;10349;48.666;8.948;2023-07-29T00:24:58;16.50;99.90
20380;DHT22;10349;48.666;8.948;2023-07-29T00:27:24;16.60;99.90
20380;DHT22;10349;48.666;8.948;2023-07-29T00:29:50;16.50;99.90
20380;DHT22;10349;48.666;8.948;2023-07-29T00:32:16;16.50;99.90
20380;DHT22;10349;48.666;8.948;2023-07-29T00:34:44;16.40;99.90
20380;DHT22;10349;48.666;8.948;2023-07-29T00:37:10;16.40;99.90
20380;DHT22;10349;48.666;8.948;2023-07-29T00:39:37;16.40;99.90
20380;DHT22;10349;48.666;8.948;2023-07-29T00:42:03;16.50;99.90
20380;DHT22;10349;48.666;8.948;2023-07-29T00:44:29;16.50;99.90
20380;DHT22;10349;48.666;8.948;2023-07-29T00:47:02;16.50;99.90
20380;DHT22;10349;48.666;8.948;2023-07-29T00:49:28;16.50;99.90
20380;DHT22;10349;48.666;8.948;2023-07-29T00:51:54;16.60;99.90
20380;DHT22;10349;48.666;8.948;2023-07-29T00:54:20;16.50;99.90
20380;DHT22;10349;48.666;8.948;2023-07-29T00:56:46;16.60;99.90
20380;DHT22;10349;48.666;8.948;2023-07-29T00:59:11;16.60;99.90
20380;DHT22;10349;48.666;8.948;2023-07-29T01:04:20;16.50;99.90
20380;DHT22;10349;48.666;8.948;2023-07-29T01:10:10;16.50;99.90
20380;DHT22;10349;48.666;8.948;2023-07-29T01:15:19;16.50;99.90
20380;DHT22;10349;48.666;8.948;2023-07-29T01:17:52;16.50;99.90
20380;DHT22;10349;48.666;8.948;2023-07-29T01:20:19;16.50;99.90
20380;DHT22;10349;48.666;8.948;2023-07-29T01:22:47;16.50;99.90
20380;DHT22;10349;48.666;8.948;2023-07-29T01:25:13;16.40;99.90
20380;DHT22;10349;48.666;8.948;2023-07-29T01:27:41;16.40;99.90
20380;DHT22;10349;48.666;8.948;2023-07-29T01:30:07;16.30;99.90
20380;DHT22;10349;48.666;8.948;2023-07-29T01:37:56;16.40;99.90
20380;DHT22;10349;48.666;8.948;2023-07-29T01:40:26;16.40;99.90
20380;DHT22;10349;48.666;8.948;2023-07-29T01:42:52;16.50;99.90
20380;DHT22;10349;48.666;8.948;2023-07-29T01:45:23;16.40;99.90
20380;DHT22;10349;48.666;8.948;2023-07-29T01:47:50;16.30;99.90
20380;DHT22;10349;48.666;8.948;2023-07-29T01:50:15;16.30;99.90
20380;DHT22;10349;48.666;8.948;2023-07-29T01:52:41;16.40;99.90
20380;DHT22;10349;48.666;8.948;2023-07-29T01:55:07;16.30;99.90
20380;DHT22;10349;48.666;8.948;2023-07-29T01:57:32;16.30;99.90
20380;DHT22;10349;48.666;8.948;2023-07-29T01:59:58;16.30;99.90
20380;DHT22;10349;48.666;8.948;2023-07-29T02:02:24;16.30;99.90
20380;DHT22;10349;48.666;8.948;2023-07-29T02:04:50;16.40;99.90
20380;DHT22;10349;48.666;8.948;2023-07-29T02:07:18;16.30;99.90
20380;DHT22;10349;48.666;8.948;2023-07-29T02:09:45;16.30;99.90
20380;DHT22;10349;48.666;8.948;2023-07-29T02:12:10;16.40;99.90
20380;DHT22;10349;48.666;8.948;2023-07-29T02:14:39;16.30;99.90
20380;DHT22;10349;48.666;8.948;2023-07-29T02:17:05;16.30;99.90
20380;DHT22;10349;48.666;8.948;2023-07-29T02:19:30;16.30;99.90
20380;DHT22;10349;48.666;8.948;2023-07-29T02:21:56;16.20;99.90
20380;DHT22;10349;48.666;8.948;2023-07-29T02:24:22;16.20;99.90
20380;DHT22;10349;48.666;8.948;2023-07-29T02:26:47;16.10;99.90
20380;DHT22;10349;48.666;8.948;2023-07-29T02:29:13;16.10;99.90
20380;DHT22;10349;48.666;8.948;2023-07-29T02:31:39;16.10;99.90
20380;DHT22;10349;48.666;8.948;2023-07-29T02:34:04;16.10;99.90
20380;DHT22;10349;48.666;8.948;2023-07-29T02:36:30;16.10;99.90
20380;DHT22;10349;48.666;8.948;2023-07-29T02:38:57;16.00;99.90
20380;DHT22;10349;48.666;8.948;2023-07-29T02:41:23;16.00;99.90
20380;DHT22;10349;48.666;8.948;2023-07-29T02:43:50;16.00;99.90
20380;DHT22;10349;48.666;8.948;2023-07-29T02:46:16;16.00;99.90
20380;DHT22;10349;48.666;8.948;2023-07-29T02:48:42;15.90;99.90
20380;DHT22;10349;48.666;8.948;2023-07-29T02:51:08;15.90;99.90
20380;DHT22;10349;48.666;8.948;2023-07-29T02:53:34;15.90;99.90
20380;DHT22;10349;48.666;8.948;2023-07-29T02:56:02;15.90;99.90
20380;DHT22;10349;48.666;8.948;2023-07-29T02:58:28;15.90;99.90
20380;DHT22;10349;48.666;8.948;2023-07-29T03:01:01;15.90;99.90
20380;DHT22;10349;48.666;8.948;2023-07-29T03:03:27;15.90;99.90
20380;DHT22;10349;48.666;8.948;2023-07-29T03:06:03;15.90;99.90
20380;DHT22;10349;48.666;8.948;2023-07-29T03:08:29;15.80;99.90
20380;DHT22;10349;48.666;8.948;2023-07-29T03:10:56;15.90;99.90
20380;DHT22;10349;48.666;8.948;2023-07-29T03:13:22;15.80;99.90
20380;DHT22;10349;48.666;8.948;2023-07-29T03:15:48;15.90;99.90
20380;DHT22;10349;48.666;8.948;2023-07-29T03:18:15;15.90;99.90
20380;DHT22;10349;48.666;8.948;2023-07-29T03:20:41;15.90;99.90
20380;DHT22;10349;48.666;8.948;2023-07-29T03:23:07;16.10;99.90
20380;DHT22;10349;48.666;8.948;2023-07-29T03:25:32;16.10;99.90
20380;DHT22;10349;48.666;8.948;2023-07-29T03:27:58;16.00;99.90
20380;DHT22;10349;48.666;8.948;2023-07-29T03:30:24;16.00;99.90
20380;DHT22;10349;48.666;8.948;2023-07-29T03:32:51;16.00;99.90
20380;DHT22;10349;48.666;8.948;2023-07-29T03:35:17;16.10;99.90
20380;DHT22;10349;48.666;8.948;2023-07-29T03:37:43;16.10;99.90
20380;DHT22;10349;48.666;8.948;2023-07-29T03:40:09;16.20;99.90
20380;DHT22;10349;48.666;8.948;2023-07-29T03:42:35;16.10;99.90
20380;DHT22;10349;48.666;8.948;2023-07-29T03:45:01;16.10;99.90
20380;DHT22;10349;48.666;8.948;2023-07-29T03:47:28;16.10;99.90
20380;DHT22;10349;48.666;8.948;2023-07-29T03:49:54;16.20;99.90
20380;DHT22;10349;48.666;8.948;2023-07-29T03:52:21;16.20;99.90
20380;DHT22;10349;48.666;8.948;2023-07-29T03:54:47;16.20;99.90
20380;DHT22;10349;48.666;8.948;2023-07-29T03:57:14;16.20;99.90
20380;DHT22;10349;48.666;8.948;2023-07-29T03:59:40;16.20;99.90
20380;DHT22;10349;48.666;8.948;2023-07-29T04:02:06;16.20;99.90
20380;DHT22;10349;48.666;8.948;2023-07-29T04:04:33;16.30;99.90
20380;DHT22;10349;48.666;8.948;2023-07-29T04:06:58;16.20;99.90
20380;DHT22;10349;48.666;8.948;2023-07-29T04:09:24;16.30;99.90
20380;DHT22;10349;48.666;8.948;2023-07-29T04:11:51;16.30;99.90
20380;DHT22;10349;48.666;8.948;2023-07-29T04:14:16;16.20;99.90
20380;DHT22;10349;48.666;8.948;2023-07-29T04:16:42;16.30;99.90
20380;DHT22;10349;48.666;8.948;2023-07-29T04:19:08;16.20;99.90
20380;DHT22;10349;48.666;8.948;2023-07-29T04:21:34;16.30;99.90
20380;DHT22;10349;48.666;8.948;2023-07-29T04:23:59;16.20;99.90
20380;DHT22;10349;48.666;8.948;2023-07-29T04:26:25;16.30;99.90
20380;DHT22;10349;48.666;8.948;2023-07-29T04:28:51;16.30;99.90
20380;DHT22;10349;48.666;8.948;2023-07-29T04:31:16;16.20;99.90
20380;DHT22;10349;48.666;8.948;2023-07-29T04:33:42;16.20;99.90
20380;DHT22;10349;48.666;8.948;2023-07-29T04:36:07;16.20;99.90
20380;DHT22;10349;48.666;8.948;2023-07-29T04:38:34;16.20;99.90
20380;DHT22;10349;48.666;8.948;2023-07-29T04:40:59;16.30;99.90
20380;DHT22;10349;48.666;8.948;2023-07-29T04:43:28;16.20;99.90
20380;DHT22;10349;48.666;8.948;2023-07-29T04:45:54;16.30;99.90
20380;DHT22;10349;48.666;8.948;2023-07-29T04:48:20;16.10;99.90
20380;DHT22;10349;48.666;8.948;2023-07-29T04:50:46;16.10;99.90
20380;DHT22;10349;48.666;8.948;2023-07-29T04:53:11;16.20;99.90
20380;DHT22;10349;48.666;8.948;2023-07-29T04:55:40;16.20;99.90
20380;DHT22;10349;48.666;8.948;2023-07-29T04:58:05;16.20;99.90
20380;DHT22;10349;48.666;8.948;2023-07-29T05:00:31;16.20;99.90
20380;DHT22;10349;48.666;8.948;2023-07-29T05:02:57;16.30;99.90
20380;DHT22;10349;48.666;8.948;2023-07-29T05:05:22;16.30;99.90
20380;DHT22;10349;48.666;8.948;2023-07-29T05:07:48;16.30;99.90
20380;DHT22;10349;48.666;8.948;2023-07-29T05:10:14;16.30;99.90
20380;DHT22;10349;48.666;8.948;2023-07-29T05:12:40;16.30;99.90
20380;DHT22;10349;48.666;8.948;2023-07-29T05:15:06;16.40;99.90
20380;DHT22;10349;48.666;8.948;2023-07-29T05:17:32;16.40;99.90
20380;DHT22;10349;48.666;8.948;2023-07-29T05:19:57;16.40;99.90
20380;DHT22;10349;48.666;8.948;2023-07-29T05:22:24;16.40;99.90
20380;DHT22;10349;48.666;8.948;2023-07-29T05:24:51;16.40;99.90
20380;DHT22;10349;48.666;8.948;2023-07-29T05:27:17;16.50;99.90
20380;DHT22;10349;48.666;8.948;2023-07-29T05:29:42;16.50;99.90
20380;DHT22;10349;48.666;8.948;2023-07-29T05:32:08;16.60;99.90
20380;DHT22;10349;48.666;8.948;2023-07-29T05:34:34;16.60;99.90
20380;DHT22;10349;48.666;8.948;2023-07-29T05:36:59;16.70;99.90
20380;DHT22;10349;48.666;8.948;2023-07-29T05:39:25;16.80;99.90
20380;DHT22;10349;48.666;8.948;2023-07-29T05:41:52;16.80;99.90
20380;DHT22;10349;48.666;8.948;2023-07-29T05:44:18;16.90;99.90
20380;DHT22;10349;48.666;8.948;2023-07-29T05:46:43;16.90;99.90
20380;DHT22;10349;48.666;8.948;2023-07-29T05:49:09;16.90;99.90
20380;DHT22;10349;48.666;8.948;2023-07-29T05:51:35;17.00;99.90
20380;DHT22;10349;48.666;8.948;2023-07-29T05:54:01;17.10;99.90
20380;DHT22;10349;48.666;8.948;2023-07-29T05:56:26;17.10;99.90
20380;DHT22;10349;48.666;8.948;2023-07-29T05:58:52;17.20;99.90
20380;DHT22;10349;48.666;8.948;2023-07-29T06:01:18;17.30;99.90
20380;DHT22;10349;48.666;8.948;2023-07-29T06:03:47;17.20;99.90
20380;DHT22;10349;48.666;8.948;2023-07-29T06:06:13;17.30;99.90
20380;DHT22;10349;48.666;8.948;2023-07-29T06:08:38;17.40;99.90
20380;DHT22;10349;48.666;8.948;2023-07-29T06:11:04;17.50;99.90
20380;DHT22;10349;48.666;8.948;2023-07-29T06:13:32;17.60;99.90
20380;DHT22;10349;48.666;8.948;2023-07-29T06:16:01;17.70;99.90
20380;DHT22;10349;48.666;8.948;2023-07-29T06:18:26;17.80;99.90
20380;DHT22;10349;48.666;8.948;2023-07-29T06:20:52;17.90;99.90
20380;DHT22;10349;48.666;8.948;2023-07-29T06:23:18;17.80;99.90
20380;DHT22;10349;48.666;8.948;2023-07-29T06:25:44;17.80;99.90
20380;DHT22;10349;48.666;8.948;2023-07-29T06:28:10;17.80;99.90
20380;DHT22;10349;48.666;8.948;2023-07-29T06:30:35;17.80;99.90
20380;DHT22;10349;48.666;8.948;2023-07-29T06:33:02;17.80;99.90
20380;DHT22;10349;48.666;8.948;2023-07-29T06:35:28;17.80;99.90
20380;DHT22;10349;48.666;8.948;2023-07-29T06:37:54;17.70;99.90
20380;DHT22;10349;48.666;8.948;2023-07-29T06:40:20;17.70;99.90
20380;DHT22;10349;48.666;8.948;2023-07-29T06:42:45;17.70;99.90
20380;DHT22;10349;48.666;8.948;2023-07-29T06:45:11;17.60;99.90
20380;DHT22;10349;48.666;8.948;2023-07-29T06:47:37;17.60;99.90
20380;DHT22;10349;48.666;8.948;2023-07-29T06:50:03;17.60;99.90
20380;DHT22;10349;48.666;8.948;2023-07-29T06:52:29;17.50;99.90
20380;DHT22;10349;48.666;8.948;2023-07-29T06:54:54;17.50;99.90
20380;DHT22;10349;48.666;8.948;2023-07-29T06:57:20;17.50;99.90
20380;DHT22;10349;48.666;8.948;2023-07-29T06:59:47;17.40;99.90
20380;DHT22;10349;48.666;8.948;2023-07-29T07:02:12;17.40;99.90
20380;DHT22;10349;48.666;8.948;2023-07-29T07:04:38;17.40;99.90
20380;DHT22;10349;48.666;8.948;2023-07-29T07:07:04;17.40;99.90
20380;DHT22;10349;48.666;8.948;2023-07-29T07:09:30;17.40;99.90
20380;DHT22;10349;48.666;8.948;2023-07-29T07:11:55;17.40;99.90
20380;DHT22;10349;48.666;8.948;2023-07-29T07:14:21;17.50;99.90
20380;DHT22;10349;48.666;8.948;2023-07-29T07:16:47;17.30;99.90
20380;DHT22;10349;48.666;8.948;2023-07-29T07:19:12;17.30;99.90
20380;DHT22;10349;48.666;8.948;2023-07-29T07:21:38;17.30;99.90
20380;DHT22;10349;48.666;8.948;2023-07-29T07:24:04;17.40;99.90
20380;DHT22;10349;48.666;8.948;2023-07-29T07:26:29;17.30;99.90
20380;DHT22;10349;48.666;8.948;2023-07-29T07:28:55;17.50;99.90
20380;DHT22;10349;48.666;8.948;2023-07-29T07:31:22;17.50;99.90
20380;DHT22;10349;48.666;8.948;2023-07-29T07:33:48;17.40;99.90
20380;DHT22;10349;48.666;8.948;2023-07-29T07:36:14;17.50;99.90
20380;DHT22;10349;48.666;8.948;2023-07-29T07:38:41;17.50;99.90
20380;DHT22;10349;48.666;8.948;2023-07-29T07:41:06;17.60;99.90
20380;DHT22;10349;48.666;8.948;2023-07-29T07:43:32;17.60;99.90
20380;DHT22;10349;48.666;8.948;2023-07-29T07:45:59;17.70;99.90
20380;DHT22;10349;48.666;8.948;2023-07-29T07:48:26;17.80;99.90
20380;DHT22;10349;48.666;8.948;2023-07-29T07:50:52;17.80;99.90
20380;DHT22;10349;48.666;8.948;2023-07-29T07:53:18;17.90;99.90
20380;DHT22;10349;48.666;8.948;2023-07-29T07:55:45;17.90;99.90
20380;DHT22;10349;48.666;8.948;2023-07-29T07:58:11;18.00;99.90
20380;DHT22;10349;48.666;8.948;2023-07-29T08:00:36;18.00;99.90
20380;DHT22;10349;48.666;8.948;2023-07-29T08:03:02;18.10;99.90
20380;DHT22;10349;48.666;8.948;2023-07-29T08:05:28;18.20;99.90
20380;DHT22;10349;48.666;8.948;2023-07-29T08:07:53;18.30;99.90
20380;DHT22;10349;48.666;8.948;2023-07-29T08:10:19;18.40;99.90
20380;DHT22;10349;48.666;8.948;2023-07-29T08:12:44;18.40;99.90
20380;DHT22;10349;48.666;8.948;2023-07-29T08:15:10;18.50;99.90
20380;DHT22;10349;48.666;8.948;2023-07-29T08:17:36;18.60;99.90
20380;DHT22;10349;48.666;8.948;2023-07-29T08:20:01;18.70;99.90
20380;DHT22;10349;48.666;8.948;2023-07-29T08:22:27;18.70;99.90
20380;DHT22;10349;48.666;8.948;2023-07-29T08:24:54;18.90;99.90
20380;DHT22;10349;48.666;8.948;2023-07-29T08:27:20;18.90;99.90
20380;DHT22;10349;48.666;8.948;2023-07-29T08:29:45;19.00;99.90
20380;DHT22;10349;48.666;8.948;2023-07-29T08:32:11;19.10;99.90
20380;DHT22;10349;48.666;8.948;2023-07-29T08:34:36;19.20;99.90
20380;DHT22;10349;48.666;8.948;2023-07-29T08:37:02;19.30;99.90
20380;DHT22;10349;48.666;8.948;2023-07-29T08:39:28;19.40;99.90
20380;DHT22;10349;48.666;8.948;2023-07-29T08:42:01;19.40;99.90
20380;DHT22;10349;48.666;8.948;2023-07-29T08:44:35;19.40;99.90
20380;DHT22;10349;48.666;8.948;2023-07-29T08:47:02;19.50;99.90
20380;DHT22;10349;48.666;8.948;2023-07-29T08:49:29;19.60;99.90
20380;DHT22;10349;48.666;8.948;2023-07-29T08:51:55;19.60;99.90
20380;DHT22;10349;48.666;8.948;2023-07-29T08:54:22;19.80;99.90
20380;DHT22;10349;48.666;8.948;2023-07-29T08:56:48;19.80;99.90
20380;DHT22;10349;48.666;8.948;2023-07-29T08:59:15;19.90;99.90
20380;DHT22;10349;48.666;8.948;2023-07-29T09:01:43;20.00;99.90
20380;DHT22;10349;48.666;8.948;2023-07-29T09:04:08;20.00;99.90
20380;DHT22;10349;48.666;8.948;2023-07-29T09:06:35;20.20;99.90
20380;DHT22;10349;48.666;8.948;2023-07-29T09:09:04;20.20;99.90
20380;DHT22;10349;48.666;8.948;2023-07-29T09:11:30;20.40;99.90
20380;DHT22;10349;48.666;8.948;2023-07-29T09:13:56;20.60;99.90
20380;DHT22;10349;48.666;8.948;2023-07-29T09:16:22;20.90;99.90
20380;DHT22;10349;48.666;8.948;2023-07-29T09:18:49;21.00;99.90
20380;DHT22;10349;48.666;8.948;2023-07-29T09:21:17;21.10;99.90
20380;DHT22;10349;48.666;8.948;2023-07-29T09:23:44;21.20;99.90
20380;DHT22;10349;48.666;8.948;2023-07-29T09:26:10;21.20;99.90
20380;DHT22;10349;48.666;8.948;2023-07-29T09:28:40;21.30;99.90
20380;DHT22;10349;48.666;8.948;2023-07-29T09:31:06;21.30;99.90
20380;DHT22;10349;48.666;8.948;2023-07-29T09:33:35;21.30;99.90
20380;DHT22;10349;48.666;8.948;2023-07-29T09:36:11;21.30;99.90
20380;DHT22;10349;48.666;8.948;2023-07-29T09:38:37;21.30;99.90
20380;DHT22;10349;48.666;8.948;2023-07-29T09:41:03;21.40;99.90
20380;DHT22;10349;48.666;8.948;2023-07-29T09:43:33;21.50;99.90
20380;DHT22;10349;48.666;8.948;2023-07-29T09:46:03;21.60;99.90
20380;DHT22;10349;48.666;8.948;2023-07-29T09:48:36;21.70;99.90
20380;DHT22;10349;48.666;8.948;2023-07-29T09:51:12;21.80;99.90
20380;DHT22;10349;48.666;8.948;2023-07-29T09:53:43;21.90;99.90
20380;DHT22;10349;48.666;8.948;2023-07-29T09:56:10;22.00;99.90
20380;DHT22;10349;48.666;8.948;2023-07-29T09:58:36;22.10;99.90
20380;DHT22;10349;48.666;8.948;2023-07-29T10:01:08;22.20;99.90
20380;DHT22;10349;48.666;8.948;2023-07-29T10:03:36;22.30;99.90
20380;DHT22;10349;48.666;8.948;2023-07-29T10:06:06;22.40;99.90
20380;DHT22;10349;48.666;8.948;2023-07-29T10:08:33;22.40;99.90
20380;DHT22;10349;48.666;8.948;2023-07-29T10:11:08;22.30;99.90
20380;DHT22;10349;48.666;8.948;2023-07-29T10:13:34;22.30;99.90
20380;DHT22;10349;48.666;8.948;2023-07-29T10:16:00;22.40;99.90
20380;DHT22;10349;48.666;8.948;2023-07-29T10:18:29;22.40;99.90
20380;DHT22;10349;48.666;8.948;2023-07-29T10:20:57;22.40;99.90
20380;DHT22;10349;48.666;8.948;2023-07-29T10:23:25;22.70;99.90
20380;DHT22;10349;48.666;8.948;2023-07-29T10:25:57;22.60;99.90
20380;DHT22;10349;48.666;8.948;2023-07-29T10:28:25;22.80;99.90
20380;DHT22;10349;48.666;8.948;2023-07-29T10:30:52;22.90;99.90
20380;DHT22;10349;48.666;8.948;2023-07-29T10:33:18;23.20;99.90
20380;DHT22;10349;48.666;8.948;2023-07-29T10:35:44;23.20;99.90
20380;DHT22;10349;48.666;8.948;2023-07-29T10:38:10;23.20;99.90
20380;DHT22;10349;48.666;8.948;2023-07-29T10:40:48;23.30;99.90
20380;DHT22;10349;48.666;8.948;2023-07-29T10:43:23;23.20;99.90
20380;DHT22;10349;48.666;8.948;2023-07-29T10:45:49;23.00;99.90
20380;DHT22;10349;48.666;8.948;2023-07-29T10:51:22;23.10;99.90
20380;DHT22;10349;48.666;8.948;2023-07-29T10:53:59;23.10;99.90
20380;DHT22;10349;48.666;8.948;2023-07-29T10:56:34;23.20;99.90
20380;DHT22;10349;48.666;8.948;2023-07-29T11:02:01;23.30;99.90
20380;DHT22;10349;48.666;8.948;2023-07-29T11:04:29;23.40;99.90
20380;DHT22;10349;48.666;8.948;2023-07-29T11:12:40;23.60;99.90
20380;DHT22;10349;48.666;8.948;2023-07-29T11:17:39;23.50;99.90
20380;DHT22;10349;48.666;8.948;2023-07-29T11:20:05;23.60;99.90
20380;DHT22;10349;48.666;8.948;2023-07-29T11:22:33;23.70;99.90
20380;DHT22;10349;48.666;8.948;2023-07-29T11:25:00;23.80;99.90
20380;DHT22;10349;48.666;8.948;2023-07-29T11:27:27;23.90;99.90
20380;DHT22;10349;48.666;8.948;2023-07-29T11:30:00;24.00;99.90
20380;DHT22;10349;48.666;8.948;2023-07-29T11:32:26;24.10;99.90
20380;DHT22;10349;48.666;8.948;2023-07-29T11:34:52;24.30;99.90
20380;DHT22;10349;48.666;8.948;2023-07-29T11:37:18;24.40;99.90
20380;DHT22;10349;48.666;8.948;2023-07-29T11:39:46;24.50;99.90
20380;DHT22;10349;48.666;8.948;2023-07-29T11:42:12;24.70;99.90
20380;DHT22;10349;48.666;8.948;2023-07-29T11:44:38;24.70;99.90
20380;DHT22;10349;48.666;8.948;2023-07-29T11:47:08;24.70;99.90
20380;DHT22;10349;48.666;8.948;2023-07-29T11:49:35;24.70;99.90
20380;DHT22;10349;48.666;8.948;2023-07-29T11:52:02;24.60;99.90
20380;DHT22;10349;48.666;8.948;2023-07-29T11:54:28;24.70;99.90
20380;DHT22;10349;48.666;8.948;2023-07-29T11:56:55;24.60;99.90
20380;DHT22;10349;48.666;8.948;2023-07-29T11:59:21;24.60;99.90
20380;DHT22;10349;48.666;8.948;2023-07-29T12:01:46;24.80;99.90
20380;DHT22;10349;48.666;8.948;2023-07-29T12:04:13;24.70;99.90
20380;DHT22;10349;48.666;8.948;2023-07-29T12:06:39;24.80;99.90
20380;DHT22;10349;48.666;8.948;2023-07-29T12:09:06;24.80;99.90
20380;DHT22;10349;48.666;8.948;2023-07-29T12:11:33;24.70;99.90
20380;DHT22;10349;48.666;8.948;2023-07-29T12:14:00;24.70;99.90
20380;DHT22;10349;48.666;8.948;2023-07-29T12:16:26;24.90;99.90
20380;DHT22;10349;48.666;8.948;2023-07-29T12:18:52;25.10;99.90
20380;DHT22;10349;48.666;8.948;2023-07-29T12:21:19;24.90;99.90
20380;DHT22;10349;48.666;8.948;2023-07-29T12:23:45;24.90;99.90
20380;DHT22;10349;48.666;8.948;2023-07-29T12:26:10;24.80;99.90
20380;DHT22;10349;48.666;8.948;2023-07-29T12:28:36;24.70;99.90
20380;DHT22;10349;48.666;8.948;2023-07-29T12:31:07;24.90;99.90
20380;DHT22;10349;48.666;8.948;2023-07-29T12:33:36;25.00;99.90
20380;DHT22;10349;48.666;8.948;2023-07-29T12:36:03;25.00;99.90
20380;DHT22;10349;48.666;8.948;2023-07-29T12:38:29;25.10;99.90
20380;DHT22;10349;48.666;8.948;2023-07-29T12:40:55;25.20;99.90
20380;DHT22;10349;48.666;8.948;2023-07-29T12:43:21;25.00;99.90
20380;DHT22;10349;48.666;8.948;2023-07-29T12:45:49;24.90;99.90
20380;DHT22;10349;48.666;8.948;2023-07-29T12:48:15;24.90;99.90
20380;DHT22;10349;48.666;8.948;2023-07-29T12:50:40;24.90;99.90
20380;DHT22;10349;48.666;8.948;2023-07-29T12:53:07;25.00;99.90
20380;DHT22;10349;48.666;8.948;2023-07-29T12:55:33;25.00;99.90
20380;DHT22;10349;48.666;8.948;2023-07-29T12:57:59;25.00;99.90
20380;DHT22;10349;48.666;8.948;2023-07-29T13:00:25;24.90;99.90
20380;DHT22;10349;48.666;8.948;2023-07-29T13:02:50;24.80;99.90
20380;DHT22;10349;48.666;8.948;2023-07-29T13:05:16;24.80;99.90
20380;DHT22;10349;48.666;8.948;2023-07-29T13:07:42;24.70;99.90
20380;DHT22;10349;48.666;8.948;2023-07-29T13:10:09;24.70;99.90
20380;DHT22;10349;48.666;8.948;2023-07-29T13:12:35;24.70;99.90
20380;DHT22;10349;48.666;8.948;2023-07-29T13:15:00;24.70;99.90
20380;DHT22;10349;48.666;8.948;2023-07-29T13:17:26;24.90;99.90
20380;DHT22;10349;48.666;8.948;2023-07-29T13:19:52;24.80;99.90
20380;DHT22;10349;48.666;8.948;2023-07-29T13:22:19;24.70;99.90
20380;DHT22;10349;48.666;8.948;2023-07-29T13:24:45;24.80;99.90
20380;DHT22;10349;48.666;8.948;2023-07-29T13:27:12;24.80;99.90
20380;DHT22;10349;48.666;8.948;2023-07-29T13:29:39;24.80;99.90
20380;DHT22;10349;48.666;8.948;2023-07-29T13:32:05;24.80;99.90
20380;DHT22;10349;48.666;8.948;2023-07-29T13:34:31;24.80;99.90
20380;DHT22;10349;48.666;8.948;2023-07-29T13:36:57;24.90;99.90
20380;DHT22;10349;48.666;8.948;2023-07-29T13:39:23;24.90;99.90
20380;DHT22;10349;48.666;8.948;2023-07-29T13:41:48;24.90;99.90
20380;DHT22;10349;48.666;8.948;2023-07-29T13:44:14;24.90;99.90
20380;DHT22;10349;48.666;8.948;2023-07-29T13:46:39;24.90;99.90
20380;DHT22;10349;48.666;8.948;2023-07-29T13:49:06;25.00;99.90
20380;DHT22;10349;48.666;8.948;2023-07-29T13:51:32;25.00;99.90
20380;DHT22;10349;48.666;8.948;2023-07-29T13:53:58;25.00;99.90
20380;DHT22;10349;48.666;8.948;2023-07-29T13:56:23;24.90;99.90
20380;DHT22;10349;48.666;8.948;2023-07-29T13:58:49;24.90;99.90
20380;DHT22;10349;48.666;8.948;2023-07-29T14:01:14;24.90;99.90
20380;DHT22;10349;48.666;8.948;2023-07-29T14:03:40;25.00;99.90
20380;DHT22;10349;48.666;8.948;2023-07-29T14:06:06;24.80;99.90
20380;DHT22;10349;48.666;8.948;2023-07-29T14:08:31;24.70;99.90
20380;DHT22;10349;48.666;8.948;2023-07-29T14:10:58;24.70;99.90
20380;DHT22;10349;48.666;8.948;2023-07-29T14:13:23;24.50;99.90
20380;DHT22;10349;48.666;8.948;2023-07-29T14:15:49;24.50;99.90
20380;DHT22;10349;48.666;8.948;2023-07-29T14:18:14;24.50;99.90
20380;DHT22;10349;48.666;8.948;2023-07-29T14:20:40;24.60;99.90
20380;DHT22;10349;48.666;8.948;2023-07-29T14:23:06;24.70;99.90
20380;DHT22;10349;48.666;8.948;2023-07-29T14:25:33;24.70;99.90
20380;DHT22;10349;48.666;8.948;2023-07-29T14:27:59;24.60;99.90
20380;DHT22;10349;48.666;8.948;2023-07-29T14:30:24;24.50;99.90
20380;DHT22;10349;48.666;8.948;2023-07-29T14:32:50;24.50;99.90
20380;DHT22;10349;48.666;8.948;2023-07-29T14:35:17;24.40;99.90
20380;DHT22;10349;48.666;8.948;2023-07-29T14:37:42;24.40;99.90
20380;DHT22;10349;48.666;8.948;2023-07-29T14:40:08;24.50;99.90
20380;DHT22;10349;48.666;8.948;2023-07-29T14:42:34;24.50;99.90
20380;DHT22;10349;48.666;8.948;2023-07-29T14:44:59;24.50;99.90
20380;DHT22;10349;48.666;8.948;2023-07-29T14:47:25;24.40;99.90
20380;DHT22;10349;48.666;8.948;2023-07-29T14:49:51;24.30;99.90
20380;DHT22;10349;48.666;8.948;2023-07-29T14:52:17;24.30;99.90
20380;DHT22;10349;48.666;8.948;2023-07-29T14:54:43;24.30;99.90
20380;DHT22;10349;48.666;8.948;2023-07-29T14:57:09;24.30;99.90
20380;DHT22;10349;48.666;8.948;2023-07-29T14:59:35;24.30;99.90
20380;DHT22;10349;48.666;8.948;2023-07-29T15:02:01;24.30;99.90
20380;DHT22;10349;48.666;8.948;2023-07-29T15:04:27;24.30;99.90
20380;DHT22;10349;48.666;8.948;2023-07-29T15:06:52;24.30;99.90
20380;DHT22;10349;48.666;8.948;2023-07-29T15:09:18;24.40;99.90
20380;DHT22;10349;48.666;8.948;2023-07-29T15:11:44;24.50;99.90
20380;DHT22;10349;48.666;8.948;2023-07-29T15:14:10;24.40;99.90
20380;DHT22;10349;48.666;8.948;2023-07-29T15:16:35;24.40;99.90
20380;DHT22;10349;48.666;8.948;2023-07-29T15:19:03;24.50;99.90
20380;DHT22;10349;48.666;8.948;2023-07-29T15:21:32;24.50;99.90
20380;DHT22;10349;48.666;8.948;2023-07-29T15:24:00;24.50;99.90
20380;DHT22;10349;48.666;8.948;2023-07-29T15:26:26;24.40;99.90
20380;DHT22;10349;48.666;8.948;2023-07-29T15:28:52;24.50;99.90
20380;DHT22;10349;48.666;8.948;2023-07-29T15:31:17;24.40;99.90
20380;DHT22;10349;48.666;8.948;2023-07-29T15:33:43;24.50;99.90
20380;DHT22;10349;48.666;8.948;2023-07-29T15:36:09;24.60;99.90
20380;DHT22;10349;48.666;8.948;2023-07-29T15:38:34;24.60;99.90
20380;DHT22;10349;48.666;8.948;2023-07-29T15:41:00;24.70;99.90
20380;DHT22;10349;48.666;8.948;2023-07-29T15:43:26;24.70;99.90
20380;DHT22;10349;48.666;8.948;2023-07-29T15:45:53;24.60;99.90
20380;DHT22;10349;48.666;8.948;2023-07-29T15:48:19;24.50;99.90
20380;DHT22;10349;48.666;8.948;2023-07-29T15:50:46;24.40;99.90
20380;DHT22;10349;48.666;8.948;2023-07-29T15:53:12;24.40;99.90